createdAt,value
2023-02-09T00:01:01.965Z,12.35
2023-02-09T00:03:29.733Z,12.27
2023-02-09T00:05:59.621Z,12.40
2023-02-09T00:08:27.295Z,12.93
2023-02-09T00:10:54.977Z,13.60
2023-02-09T00:13:24.473Z,14.30
2023-02-09T00:15:52.501Z,13.27
2023-02-09T00:18:20.392Z,14.07
2023-02-09T00:20:55.670Z,14.60
2023-02-09T00:23:24.690Z,15.27
2023-02-09T00:25:52.404Z,15.70
2023-02-09T00:28:20.308Z,16.83
2023-02-09T00:30:48.442Z,18.33
2023-02-09T00:33:17.852Z,18.90
2023-02-09T00:35:45.549Z,19.52
2023-02-09T00:38:13.478Z,20.55
2023-02-09T00:40:43.109Z,22.95
2023-02-09T00:43:11.715Z,24.20
2023-02-09T00:45:39.483Z,25.33
2023-02-09T00:48:07.528Z,25.30
2023-02-09T00:50:35.996Z,25.75
2023-02-09T00:53:03.691Z,28.55
2023-02-09T00:55:31.501Z,29.67
2023-02-09T00:58:00.512Z,30.95
2023-02-09T01:00:29.884Z,32.72
2023-02-09T01:02:58.244Z,34.88
2023-02-09T01:05:25.903Z,36.10
2023-02-09T01:07:53.641Z,37.60
2023-02-09T01:10:21.579Z,39.05
2023-02-09T01:12:50.645Z,41.80
2023-02-09T01:15:20.008Z,41.85
2023-02-09T01:17:47.658Z,45.20
2023-02-09T01:20:15.531Z,48.47
2023-02-09T01:22:43.178Z,49.92
2023-02-09T01:25:11.366Z,52.00
2023-02-09T01:27:39.096Z,53.03
2023-02-09T01:30:07.569Z,57.25
2023-02-09T01:32:37.901Z,61.22
2023-02-09T01:35:06.185Z,60.50
2023-02-09T01:37:34.567Z,63.88
2023-02-09T01:40:02.398Z,65.03
2023-02-09T01:42:30.085Z,69.70
2023-02-09T01:45:21.689Z,71.85
2023-02-09T01:47:53.890Z,75.35
2023-02-09T01:50:21.599Z,78.28
2023-02-09T01:52:49.298Z,81.97
2023-02-09T01:55:18.713Z,87.25
2023-02-09T01:57:47.447Z,88.88
2023-02-09T02:00:16.384Z,93.32
2023-02-09T02:02:47.334Z,93.78
2023-02-09T02:05:16.396Z,99.45
2023-02-09T02:07:46.028Z,102.40
2023-02-09T02:10:13.716Z,106.30
2023-02-09T02:12:42.418Z,112.05
2023-02-09T02:15:12.150Z,112.82
2023-02-09T02:17:50.997Z,118.20
2023-02-09T02:20:43.697Z,119.00
2023-02-09T02:23:16.747Z,129.40
2023-02-09T02:25:59.628Z,129.70
2023-02-09T02:28:42.574Z,136.57
2023-02-09T02:31:28.917Z,135.95
2023-02-09T02:33:59.472Z,142.20
2023-02-09T02:36:29.084Z,144.27
2023-02-09T02:39:00.986Z,146.50
2023-02-09T02:41:51.408Z,152.35
2023-02-09T02:44:19.077Z,155.15
2023-02-09T02:46:49.456Z,159.50
2023-02-09T02:49:19.712Z,162.63
2023-02-09T02:51:48.305Z,160.77
2023-02-09T02:54:17.463Z,168.63
2023-02-09T02:56:46.820Z,168.48
2023-02-09T02:59:16.853Z,177.90
2023-02-09T03:01:46.152Z,179.52
2023-02-09T03:04:15.204Z,182.15
2023-02-09T03:06:42.881Z,182.88
2023-02-09T03:09:10.802Z,184.55
2023-02-09T03:11:40.317Z,191.70
2023-02-09T03:14:29.111Z,191.13
2023-02-09T03:17:02.900Z,191.63
2023-02-09T03:19:36.482Z,197.90
2023-02-09T03:22:06.699Z,199.55
2023-02-09T03:24:37.717Z,202.05
2023-02-09T03:27:10.870Z,204.27
2023-02-09T03:29:39.047Z,207.50
2023-02-09T03:32:06.911Z,205.98
2023-02-09T03:34:35.930Z,205.25
2023-02-09T03:37:03.624Z,211.27
2023-02-09T03:39:31.294Z,208.77
2023-02-09T03:41:58.986Z,216.75
2023-02-09T03:44:29.640Z,211.98
2023-02-09T03:46:58.308Z,211.82
2023-02-09T03:49:26.273Z,215.77
2023-02-09T03:51:55.348Z,213.77
2023-02-09T03:54:23.028Z,219.88
2023-02-09T03:56:50.698Z,218.15
2023-02-09T03:59:18.452Z,220.20
2023-02-09T04:01:46.119Z,217.48
2023-02-09T04:04:13.784Z,226.85
2023-02-09T04:06:41.447Z,222.32
2023-02-09T04:09:10.843Z,226.00
2023-02-09T04:11:38.492Z,223.60
2023-02-09T04:14:06.189Z,221.00
2023-02-09T04:16:33.971Z,216.55
2023-02-09T04:19:01.697Z,225.32
2023-02-09T04:21:29.394Z,228.35
2023-02-09T04:23:57.062Z,228.27
2023-02-09T04:26:26.052Z,223.15
2023-02-09T04:28:53.721Z,222.48
2023-02-09T04:31:21.617Z,223.77
2023-02-09T04:33:49.348Z,215.20
2023-02-09T04:36:17.448Z,226.27
2023-02-09T04:38:45.139Z,226.77
2023-02-09T04:41:12.838Z,218.32
2023-02-09T04:43:41.828Z,212.23
2023-02-09T04:46:13.206Z,214.60
2023-02-09T04:48:40.885Z,212.15
2023-02-09T04:51:08.603Z,212.23
2023-02-09T04:53:36.270Z,206.98
2023-02-09T04:56:04.029Z,212.38
2023-02-09T04:58:49.337Z,204.80
2023-02-09T05:01:20.449Z,205.35
2023-02-09T05:03:48.210Z,203.70
2023-02-09T05:06:16.079Z,207.23
2023-02-09T05:08:44.242Z,206.30
2023-02-09T05:11:12.125Z,202.32
2023-02-09T05:13:39.965Z,203.15
2023-02-09T05:16:08.086Z,194.35
2023-02-09T05:18:37.362Z,204.90
2023-02-09T05:21:05.150Z,199.00
2023-02-09T05:23:33.044Z,202.75
2023-02-09T05:26:00.721Z,191.45
2023-02-09T05:28:28.609Z,188.48
2023-02-09T05:30:56.365Z,193.43
2023-02-09T05:33:24.675Z,194.73
2023-02-09T05:35:55.619Z,193.10
2023-02-09T05:38:23.474Z,188.52
2023-02-09T05:40:51.457Z,185.38
2023-02-09T05:43:19.378Z,183.55
2023-02-09T05:45:47.109Z,183.40
2023-02-09T05:48:14.870Z,181.57
2023-02-09T05:50:42.563Z,181.10
2023-02-09T05:53:12.918Z,180.57
2023-02-09T05:55:41.551Z,174.20
2023-02-09T05:58:09.291Z,173.95
2023-02-09T06:00:37.065Z,171.82
2023-02-09T06:03:04.898Z,169.35
2023-02-09T06:05:32.597Z,172.48
2023-02-09T06:08:00.319Z,167.27
2023-02-09T06:10:29.352Z,166.07
2023-02-09T06:12:57.163Z,167.27
2023-02-09T06:15:24.866Z,164.73
2023-02-09T06:17:52.542Z,164.15
2023-02-09T06:20:20.606Z,160.18
2023-02-09T06:22:48.392Z,159.05
2023-02-09T06:25:16.468Z,156.82
2023-02-09T06:27:45.546Z,152.88
2023-02-09T06:30:14.300Z,150.65
2023-02-09T06:32:42.014Z,150.07
2023-02-09T06:35:09.767Z,149.05
2023-02-09T06:37:37.511Z,145.13
2023-02-09T06:40:05.805Z,146.13
2023-02-09T06:42:44.528Z,143.82
2023-02-09T06:45:13.933Z,139.90
2023-02-09T06:47:41.860Z,140.23
2023-02-09T06:50:10.069Z,139.45
2023-02-09T06:52:37.830Z,138.88
2023-02-09T06:55:05.879Z,136.20
2023-02-09T06:57:34.742Z,135.57
2023-02-09T07:00:02.523Z,129.68
2023-02-09T07:02:31.634Z,131.38
2023-02-09T07:04:59.643Z,127.57
2023-02-09T07:07:27.349Z,126.25
2023-02-09T07:09:55.056Z,125.53
2023-02-09T07:12:23.049Z,120.78
2023-02-09T07:14:50.876Z,124.50
2023-02-09T07:17:18.652Z,116.95
2023-02-09T07:19:47.827Z,116.57
2023-02-09T07:22:15.670Z,118.95
2023-02-09T07:24:43.406Z,115.95
2023-02-09T07:27:11.146Z,112.97
2023-02-09T07:29:38.911Z,113.03
2023-02-09T07:32:06.942Z,109.90
2023-02-09T07:34:34.921Z,110.68
2023-02-09T07:37:04.317Z,108.47
2023-02-09T07:39:32.319Z,110.43
2023-02-09T07:42:00.188Z,106.38
2023-02-09T07:44:44.515Z,104.68
2023-02-09T07:47:12.185Z,100.05
2023-02-09T07:49:39.937Z,100.82
2023-02-09T07:52:08.970Z,99.82
2023-02-09T07:54:36.690Z,100.18
2023-02-09T07:57:04.522Z,99.63
2023-02-09T07:59:32.343Z,95.70
2023-02-09T08:02:00.151Z,93.93
2023-02-09T08:04:28.003Z,94.28
2023-02-09T08:06:55.752Z,92.82
2023-02-09T08:09:25.014Z,91.30
2023-02-09T08:11:54.890Z,89.78
2023-02-09T08:14:24.677Z,88.32
2023-02-09T08:17:13.090Z,83.97
2023-02-09T08:19:41.708Z,83.55
2023-02-09T08:22:09.407Z,82.30
2023-02-09T08:24:38.418Z,81.20
2023-02-09T08:27:06.160Z,80.22
2023-02-09T08:29:33.833Z,77.97
2023-02-09T08:32:01.546Z,75.63
2023-02-09T08:34:29.350Z,75.07
2023-02-09T08:36:57.025Z,75.68
2023-02-09T08:39:24.822Z,72.70
2023-02-09T08:41:53.891Z,72.07
2023-02-09T08:44:21.587Z,68.45
2023-02-09T08:46:49.406Z,70.10
2023-02-09T08:49:17.223Z,69.00
2023-02-09T08:51:44.967Z,68.10
2023-02-09T08:54:12.686Z,65.60
2023-02-09T08:56:41.204Z,65.45
2023-02-09T08:59:10.279Z,63.65
2023-02-09T09:01:40.316Z,62.60
2023-02-09T09:04:08.303Z,62.65
2023-02-09T09:06:36.286Z,61.15
2023-02-09T09:09:04.125Z,61.03
2023-02-09T09:11:31.826Z,58.97
2023-02-09T09:13:59.548Z,57.97
2023-02-09T09:16:28.627Z,57.80
2023-02-09T09:18:56.408Z,59.35
2023-02-09T09:21:24.099Z,56.90
2023-02-09T09:23:51.787Z,54.95
2023-02-09T09:26:19.466Z,54.67
2023-02-09T09:28:49.811Z,55.17
2023-02-09T09:31:17.856Z,51.85
2023-02-09T09:33:47.677Z,52.78
2023-02-09T09:36:15.527Z,53.15
2023-02-09T09:38:43.331Z,49.13
2023-02-09T09:41:19.294Z,52.20
2023-02-09T09:43:47.032Z,46.90
2023-02-09T09:46:17.355Z,48.28
2023-02-09T09:48:47.006Z,47.42
2023-02-09T09:51:18.272Z,46.25
2023-02-09T09:53:46.008Z,45.03
2023-02-09T09:56:13.684Z,44.65
2023-02-09T09:58:42.795Z,44.35
2023-02-09T10:01:13.380Z,43.78
2023-02-09T10:03:41.087Z,42.45
2023-02-09T10:06:15.288Z,41.38
2023-02-09T10:08:44.098Z,42.85
2023-02-09T10:11:12.300Z,40.00
2023-02-09T10:13:41.314Z,40.85
2023-02-09T10:16:17.029Z,38.72
2023-02-09T10:18:45.426Z,37.58
2023-02-09T10:21:15.515Z,35.92
2023-02-09T10:23:44.797Z,37.13
2023-02-09T10:26:23.982Z,38.08
2023-02-09T10:28:52.934Z,36.53
2023-02-09T10:31:25.032Z,34.53
2023-02-09T10:33:58.096Z,35.35
2023-02-09T10:36:29.776Z,33.92
2023-02-09T10:39:05.670Z,34.50
2023-02-09T10:41:34.020Z,33.35
2023-02-09T10:44:02.874Z,33.47
2023-02-09T10:46:30.574Z,32.97
2023-02-09T10:48:58.274Z,30.60
2023-02-09T10:51:29.768Z,31.85
2023-02-09T10:53:59.766Z,30.45
2023-02-09T10:56:28.363Z,29.85
2023-02-09T10:59:00.739Z,30.48
2023-02-09T11:01:29.513Z,28.70
2023-02-09T11:03:59.549Z,28.98
2023-02-09T11:06:28.864Z,28.00
2023-02-09T11:08:59.032Z,27.85
2023-02-09T11:11:29.997Z,26.98
2023-02-09T11:13:57.680Z,26.77
2023-02-09T11:16:27.792Z,26.98
2023-02-09T11:18:59.253Z,26.10
2023-02-09T11:21:33.547Z,26.30
2023-02-09T11:24:02.221Z,24.55
2023-02-09T11:26:36.133Z,25.15
2023-02-09T11:29:07.273Z,23.95
2023-02-09T11:31:55.476Z,23.08
2023-02-09T11:34:34.574Z,22.98
2023-02-09T11:37:08.044Z,22.88
2023-02-09T11:39:41.029Z,22.67
2023-02-09T11:42:29.480Z,22.63
2023-02-09T11:44:58.560Z,21.70
2023-02-09T11:47:29.179Z,21.50
2023-02-09T11:49:57.536Z,21.08
2023-02-09T11:52:29.371Z,21.38
2023-02-09T11:54:59.535Z,20.35
2023-02-09T11:57:32.133Z,20.73
2023-02-09T11:59:59.888Z,19.83
2023-02-09T12:02:38.814Z,18.75
2023-02-09T12:05:06.719Z,18.73
2023-02-09T12:07:40.314Z,18.48
2023-02-09T12:10:15.885Z,18.38
2023-02-09T12:12:45.431Z,18.30
2023-02-09T12:15:15.761Z,19.00
2023-02-09T12:17:46.239Z,18.13
2023-02-09T12:20:25.752Z,17.45
2023-02-09T12:22:57.555Z,17.02
2023-02-09T12:26:00.462Z,17.48
2023-02-09T12:28:44.797Z,16.60
2023-02-09T12:31:18.043Z,15.88
2023-02-09T12:34:14.106Z,16.40
2023-02-09T12:37:09.096Z,16.38
2023-02-09T12:39:38.250Z,14.75
2023-02-09T12:42:27.972Z,13.73
2023-02-09T12:44:57.342Z,15.10
2023-02-09T12:47:57.328Z,13.85
2023-02-09T12:50:36.640Z,14.93
2023-02-09T12:53:35.736Z,36.42
2023-02-09T12:56:06.185Z,37.72
2023-02-09T12:58:38.524Z,27.05
2023-02-09T13:01:06.387Z,31.67
2023-02-09T13:03:35.387Z,28.48
2023-02-09T13:06:03.386Z,28.55
2023-02-09T13:08:35.156Z,20.27
2023-02-09T13:11:06.714Z,21.77
2023-02-09T13:13:36.571Z,22.95
2023-02-09T13:16:32.629Z,18.52
2023-02-09T13:19:03.678Z,19.80
2023-02-09T13:21:35.395Z,23.88
2023-02-09T13:24:04.532Z,23.25
2023-02-09T13:26:34.401Z,15.88
2023-02-09T13:29:19.742Z,21.90
2023-02-09T13:31:52.431Z,15.45
2023-02-09T13:34:24.868Z,16.23
2023-02-09T13:36:56.422Z,16.65
2023-02-09T13:39:25.342Z,15.07
2023-02-09T13:41:54.579Z,13.38
2023-02-09T13:44:23.268Z,17.40
2023-02-09T13:46:55.659Z,11.75
2023-02-09T13:49:23.682Z,12.05
2023-02-09T13:52:11.490Z,12.55
2023-02-09T13:54:39.346Z,12.82
2023-02-09T13:57:11.488Z,10.63
2023-02-09T13:59:42.040Z,12.32
2023-02-09T14:02:18.284Z,12.55
2023-02-09T14:04:46.000Z,9.10
2023-02-09T14:07:14.583Z,14.43
2023-02-09T14:09:44.453Z,13.55
2023-02-09T14:12:14.943Z,21.88
2023-02-09T14:15:01.376Z,15.25
2023-02-09T14:17:30.257Z,16.55
2023-02-09T14:19:58.499Z,16.33
2023-02-09T14:22:33.777Z,8.93
2023-02-09T14:25:01.611Z,12.30
2023-02-09T14:27:32.862Z,15.18
2023-02-09T14:30:01.208Z,12.48
2023-02-09T14:32:33.455Z,10.75
2023-02-09T14:35:09.746Z,17.02
2023-02-09T14:37:37.471Z,12.82
2023-02-09T14:40:17.111Z,9.38
2023-02-09T14:42:59.119Z,15.70
2023-02-09T14:45:30.596Z,9.98
2023-02-09T14:47:58.349Z,10.43
2023-02-09T14:50:26.062Z,9.02
2023-02-09T14:52:55.634Z,13.75
2023-02-09T14:55:26.073Z,13.88
2023-02-09T14:57:53.821Z,14.77
2023-02-09T15:00:25.245Z,9.75
2023-02-09T15:02:53.529Z,12.40
2023-02-09T15:05:21.578Z,12.55
2023-02-09T15:07:49.898Z,22.58
2023-02-09T15:10:21.726Z,9.50
2023-02-09T15:12:49.511Z,12.32
2023-02-09T15:15:18.139Z,13.30
2023-02-09T15:17:47.181Z,13.95
2023-02-09T15:20:15.153Z,10.48
2023-02-09T15:22:42.916Z,18.88
2023-02-09T15:25:10.846Z,16.75
2023-02-09T15:27:42.001Z,13.20
2023-02-09T15:30:13.283Z,15.30
2023-02-09T15:32:41.006Z,11.75
2023-02-09T15:35:11.157Z,11.77
2023-02-09T15:37:38.960Z,14.35
2023-02-09T15:40:17.729Z,15.27
2023-02-09T15:43:11.271Z,12.43
2023-02-09T15:45:56.797Z,13.00
2023-02-09T15:48:24.629Z,13.60
2023-02-09T15:50:53.845Z,13.18
2023-02-09T15:53:21.821Z,12.88
2023-02-09T15:55:49.574Z,14.80
2023-02-09T15:58:18.146Z,11.27
2023-02-09T16:00:46.275Z,17.83
2023-02-09T16:03:15.948Z,12.43
2023-02-09T16:05:43.864Z,12.25
2023-02-09T16:08:17.382Z,12.13
2023-02-09T16:10:45.608Z,8.52
2023-02-09T16:13:13.661Z,13.38
2023-02-09T16:15:41.401Z,11.48
2023-02-09T16:18:09.119Z,10.63
2023-02-09T16:20:36.829Z,10.68
2023-02-09T16:23:19.662Z,12.88
2023-02-09T16:25:49.665Z,9.93
2023-02-09T16:28:17.938Z,14.80
2023-02-09T16:30:51.927Z,14.48
2023-02-09T16:33:19.872Z,7.47
2023-02-09T16:35:49.367Z,13.32
2023-02-09T16:38:18.270Z,16.58
2023-02-09T16:40:46.171Z,11.52
2023-02-09T16:43:15.346Z,10.23
2023-02-09T16:46:01.163Z,15.80
2023-02-09T16:48:31.256Z,13.68
2023-02-09T16:50:59.072Z,11.25
2023-02-09T16:53:32.735Z,10.50
2023-02-09T16:56:01.397Z,10.30
2023-02-09T16:58:30.493Z,14.13
2023-02-09T17:00:58.382Z,23.35
2023-02-09T17:03:31.413Z,12.13
2023-02-09T17:05:59.119Z,21.95
2023-02-09T17:08:27.840Z,19.17
2023-02-09T17:10:56.726Z,20.20
2023-02-09T17:13:24.517Z,17.17
2023-02-09T17:15:54.488Z,13.98
2023-02-09T17:18:23.504Z,20.05
2023-02-09T17:20:52.747Z,15.52
2023-02-09T17:23:23.274Z,18.88
2023-02-09T17:25:54.859Z,13.80
2023-02-09T17:28:22.785Z,10.85
2023-02-09T17:30:50.734Z,14.88
2023-02-09T17:33:24.610Z,18.90
2023-02-09T17:36:23.808Z,17.13
2023-02-09T17:38:41.668Z,16.15
2023-02-09T17:41:14.367Z,16.52
2023-02-09T17:43:42.441Z,8.77
2023-02-09T17:46:11.467Z,12.75
2023-02-09T17:48:40.552Z,15.25
2023-02-09T17:51:10.712Z,16.85
2023-02-09T17:53:38.512Z,11.68
2023-02-09T17:56:08.634Z,11.20
2023-02-09T17:58:36.425Z,12.80
2023-02-09T18:01:10.700Z,16.85
2023-02-09T18:03:40.042Z,19.95
2023-02-09T18:06:08.841Z,13.43
2023-02-09T18:08:36.541Z,11.98
2023-02-09T18:11:06.565Z,13.57
2023-02-09T18:13:34.309Z,9.73
2023-02-09T18:16:02.023Z,15.27
2023-02-09T18:18:29.754Z,16.10
2023-02-09T18:20:58.780Z,11.20
2023-02-09T18:23:26.500Z,12.15
2023-02-09T18:25:54.172Z,11.93
2023-02-09T18:28:22.011Z,13.07
2023-02-09T18:30:49.741Z,11.60
2023-02-09T18:33:17.495Z,12.70
2023-02-09T18:35:45.767Z,10.00
2023-02-09T18:38:15.240Z,16.77
2023-02-09T18:40:42.942Z,9.98
2023-02-09T18:43:14.519Z,8.13
2023-02-09T18:45:42.272Z,13.30
2023-02-09T18:48:11.061Z,10.65
2023-02-09T18:50:40.094Z,6.53
2023-02-09T18:53:07.782Z,8.25
2023-02-09T18:55:36.828Z,5.90
2023-02-09T18:58:06.284Z,6.85
2023-02-09T19:00:34.038Z,9.10
2023-02-09T19:03:01.858Z,10.73
2023-02-09T19:05:30.778Z,8.40
2023-02-09T19:07:59.484Z,8.00
2023-02-09T19:10:27.231Z,6.25
2023-02-09T19:12:56.292Z,9.02
2023-02-09T19:15:25.793Z,9.30
2023-02-09T19:17:55.780Z,9.90
2023-02-09T19:20:26.271Z,7.35
2023-02-09T19:22:54.208Z,8.15
2023-02-09T19:25:22.460Z,8.63
2023-02-09T19:27:50.253Z,7.88
2023-02-09T19:30:24.533Z,8.10
2023-02-09T19:32:53.033Z,8.13
2023-02-09T19:35:22.468Z,8.98
2023-02-09T19:37:53.427Z,7.65
2023-02-09T19:40:28.000Z,7.93
2023-02-09T19:42:55.840Z,5.35
2023-02-09T19:45:25.006Z,6.57
2023-02-09T19:47:52.697Z,6.63
2023-02-09T19:50:20.618Z,8.50
2023-02-09T19:52:50.195Z,5.65
2023-02-09T19:55:17.968Z,5.03
2023-02-09T19:57:45.720Z,8.80
2023-02-09T20:00:17.932Z,9.70
2023-02-09T20:02:47.203Z,5.82
2023-02-09T20:05:15.088Z,5.43
2023-02-09T20:07:42.773Z,6.53
2023-02-09T20:10:10.911Z,6.13
2023-02-09T20:12:38.579Z,7.18
2023-02-09T20:15:06.556Z,8.00
2023-02-09T20:17:34.266Z,5.13
2023-02-09T20:20:03.976Z,10.73
2023-02-09T20:22:31.699Z,6.13
2023-02-09T20:24:59.439Z,6.75
2023-02-09T20:27:27.188Z,5.15
2023-02-09T20:30:01.038Z,6.80
2023-02-09T20:32:28.917Z,7.90
2023-02-09T20:34:56.661Z,6.25
2023-02-09T20:37:25.828Z,6.53
2023-02-09T20:39:53.538Z,5.95
2023-02-09T20:42:38.978Z,7.30
2023-02-09T20:45:25.084Z,6.57
2023-02-09T20:47:52.859Z,6.95
2023-02-09T20:50:20.612Z,5.55
2023-02-09T20:52:49.653Z,6.55
2023-02-09T20:55:17.377Z,6.60
2023-02-09T20:57:45.073Z,6.22
2023-02-09T21:00:13.632Z,6.05
2023-02-09T21:02:41.430Z,4.72
2023-02-09T21:05:09.692Z,6.00
2023-02-09T21:07:37.448Z,6.95
2023-02-09T21:10:07.043Z,5.22
2023-02-09T21:12:34.753Z,6.18
2023-02-09T21:15:02.476Z,6.05
2023-02-09T21:17:30.212Z,7.28
2023-02-09T21:19:57.923Z,5.35
2023-02-09T21:22:25.630Z,7.55
2023-02-09T21:24:53.345Z,4.50
2023-02-09T21:27:22.586Z,5.35
2023-02-09T21:29:50.260Z,4.57
2023-02-09T21:32:18.211Z,5.80
2023-02-09T21:34:45.963Z,6.07
2023-02-09T21:37:14.066Z,5.85
2023-02-09T21:39:41.982Z,5.50
2023-02-09T21:42:28.385Z,5.72
2023-02-09T21:44:57.525Z,5.45
2023-02-09T21:47:28.928Z,6.30
2023-02-09T21:49:57.201Z,4.63
2023-02-09T21:52:24.966Z,5.85
2023-02-09T21:54:53.724Z,6.00
2023-02-09T21:57:21.557Z,5.68
2023-02-09T21:59:49.352Z,5.20
2023-02-09T22:02:18.803Z,4.82
2023-02-09T22:04:46.526Z,5.20
2023-02-09T22:07:14.868Z,3.95
2023-02-09T22:09:42.731Z,6.05
2023-02-09T22:12:10.655Z,6.13
2023-02-09T22:14:38.442Z,4.78
2023-02-09T22:17:06.084Z,5.78
2023-02-09T22:19:35.473Z,4.45
2023-02-09T22:22:03.194Z,5.50
2023-02-09T22:24:34.526Z,7.10
2023-02-09T22:27:02.342Z,5.38
2023-02-09T22:29:30.347Z,4.60
2023-02-09T22:31:58.362Z,5.07
2023-02-09T22:34:26.236Z,5.32
2023-02-09T22:36:55.300Z,4.47
2023-02-09T22:39:23.106Z,4.30
2023-02-09T22:41:50.824Z,4.93
2023-02-09T22:44:18.834Z,4.18
2023-02-09T22:46:47.056Z,4.45
2023-02-09T22:49:16.717Z,4.43
2023-02-09T22:51:44.416Z,5.05
2023-02-09T22:54:15.114Z,5.45
2023-02-09T22:56:42.879Z,5.25
2023-02-09T22:59:11.737Z,5.13
2023-02-09T23:01:39.505Z,5.25
2023-02-09T23:04:07.237Z,4.63
2023-02-09T23:06:35.122Z,7.05
2023-02-09T23:09:04.546Z,4.50
2023-02-09T23:11:33.747Z,4.78
2023-02-09T23:14:10.460Z,5.05
2023-02-09T23:16:39.349Z,5.22
2023-02-09T23:19:07.928Z,4.28
2023-02-09T23:21:36.449Z,4.47
2023-02-09T23:24:04.178Z,4.38
2023-02-09T23:26:33.347Z,5.28
2023-02-09T23:29:01.881Z,4.43
2023-02-09T23:31:29.727Z,4.45
2023-02-09T23:33:57.549Z,4.50
2023-02-09T23:36:26.514Z,5.13
2023-02-09T23:38:54.693Z,4.63
2023-02-09T23:41:22.531Z,4.30
2023-02-09T23:43:51.902Z,4.25
2023-02-09T23:46:21.071Z,4.57
2023-02-09T23:48:48.836Z,5.20
2023-02-09T23:51:18.273Z,4.80
2023-02-09T23:53:46.142Z,4.53
2023-02-09T23:56:14.139Z,4.97
2023-02-09T23:58:42.546Z,5.18
